sensor_id;sensor_type;location;lat;lon;timestamp;P1;durP1;ratioP1;P2;durP2;ratioP2
57947;SDS011;43754;56.992;24.292;2023-02-07T00:02:07;17.63;;;3.40;;
57947;SDS011;43754;56.992;24.292;2023-02-07T00:04:40;18.65;;;3.72;;
57947;SDS011;43754;56.992;24.292;2023-02-07T00:07:11;23.83;;;4.15;;
57947;SDS011;43754;56.992;24.292;2023-02-07T00:09:45;18.38;;;3.75;;
57947;SDS011;43754;56.992;24.292;2023-02-07T00:12:17;21.77;;;4.22;;
57947;SDS011;43754;56.992;24.292;2023-02-07T00:14:49;17.38;;;3.53;;
57947;SDS011;43754;56.992;24.292;2023-02-07T00:17:21;21.10;;;4.25;;
57947;SDS011;43754;56.992;24.292;2023-02-07T00:19:53;16.92;;;4.07;;
57947;SDS011;43754;56.992;24.292;2023-02-07T00:22:25;21.10;;;3.58;;
57947;SDS011;43754;56.992;24.292;2023-02-07T00:24:58;17.00;;;3.83;;
57947;SDS011;43754;56.992;24.292;2023-02-07T00:27:30;17.73;;;3.60;;
57947;SDS011;43754;56.992;24.292;2023-02-07T00:30:03;22.58;;;4.05;;
57947;SDS011;43754;56.992;24.292;2023-02-07T00:32:35;16.40;;;3.88;;
57947;SDS011;43754;56.992;24.292;2023-02-07T00:35:07;13.38;;;3.42;;
57947;SDS011;43754;56.992;24.292;2023-02-07T00:37:39;15.55;;;3.13;;
57947;SDS011;43754;56.992;24.292;2023-02-07T00:40:13;21.23;;;3.47;;
57947;SDS011;43754;56.992;24.292;2023-02-07T00:42:45;17.75;;;2.85;;
57947;SDS011;43754;56.992;24.292;2023-02-07T00:45:18;23.15;;;3.28;;
57947;SDS011;43754;56.992;24.292;2023-02-07T00:47:49;25.75;;;3.78;;
57947;SDS011;43754;56.992;24.292;2023-02-07T00:50:21;13.02;;;3.55;;
57947;SDS011;43754;56.992;24.292;2023-02-07T00:52:54;17.67;;;4.78;;
57947;SDS011;43754;56.992;24.292;2023-02-07T00:55:28;19.27;;;4.40;;
57947;SDS011;43754;56.992;24.292;2023-02-07T00:58:00;20.98;;;3.72;;
57947;SDS011;43754;56.992;24.292;2023-02-07T01:00:32;12.90;;;4.13;;
57947;SDS011;43754;56.992;24.292;2023-02-07T01:03:04;16.50;;;3.63;;
57947;SDS011;43754;56.992;24.292;2023-02-07T01:05:36;24.27;;;5.28;;
57947;SDS011;43754;56.992;24.292;2023-02-07T01:08:09;18.08;;;3.72;;
57947;SDS011;43754;56.992;24.292;2023-02-07T01:10:43;25.58;;;3.55;;
57947;SDS011;43754;56.992;24.292;2023-02-07T01:13:16;14.50;;;2.55;;
57947;SDS011;43754;56.992;24.292;2023-02-07T01:15:48;17.02;;;3.17;;
57947;SDS011;43754;56.992;24.292;2023-02-07T01:18:21;13.27;;;3.33;;
57947;SDS011;43754;56.992;24.292;2023-02-07T01:20:52;13.65;;;3.50;;
57947;SDS011;43754;56.992;24.292;2023-02-07T01:23:24;10.73;;;2.83;;
57947;SDS011;43754;56.992;24.292;2023-02-07T01:25:58;18.30;;;2.60;;
57947;SDS011;43754;56.992;24.292;2023-02-07T01:28:30;24.15;;;3.53;;
57947;SDS011;43754;56.992;24.292;2023-02-07T01:31:05;14.77;;;2.80;;
57947;SDS011;43754;56.992;24.292;2023-02-07T01:33:38;19.13;;;2.67;;
57947;SDS011;43754;56.992;24.292;2023-02-07T01:36:11;21.92;;;2.90;;
57947;SDS011;43754;56.992;24.292;2023-02-07T01:38:44;26.15;;;3.40;;
57947;SDS011;43754;56.992;24.292;2023-02-07T01:41:17;16.80;;;2.65;;
57947;SDS011;43754;56.992;24.292;2023-02-07T01:43:56;13.52;;;2.80;;
57947;SDS011;43754;56.992;24.292;2023-02-07T01:46:31;15.98;;;2.85;;
57947;SDS011;43754;56.992;24.292;2023-02-07T01:49:09;19.50;;;3.35;;
57947;SDS011;43754;56.992;24.292;2023-02-07T01:51:47;17.98;;;3.33;;
57947;SDS011;43754;56.992;24.292;2023-02-07T01:57:05;17.88;;;2.85;;
57947;SDS011;43754;56.992;24.292;2023-02-07T01:59:39;12.40;;;3.20;;
57947;SDS011;43754;56.992;24.292;2023-02-07T02:02:15;18.15;;;3.38;;
57947;SDS011;43754;56.992;24.292;2023-02-07T02:04:50;19.83;;;3.90;;
57947;SDS011;43754;56.992;24.292;2023-02-07T02:07:24;15.23;;;3.28;;
57947;SDS011;43754;56.992;24.292;2023-02-07T02:09:57;21.38;;;3.90;;
57947;SDS011;43754;56.992;24.292;2023-02-07T02:15:39;20.73;;;2.88;;
57947;SDS011;43754;56.992;24.292;2023-02-07T02:18:21;16.60;;;3.20;;
57947;SDS011;43754;56.992;24.292;2023-02-07T02:24:47;11.60;;;2.33;;
57947;SDS011;43754;56.992;24.292;2023-02-07T02:27:53;19.17;;;2.50;;
57947;SDS011;43754;56.992;24.292;2023-02-07T02:30:55;11.45;;;2.45;;
57947;SDS011;43754;56.992;24.292;2023-02-07T02:33:52;11.35;;;2.40;;
57947;SDS011;43754;56.992;24.292;2023-02-07T02:36:29;16.17;;;2.80;;
57947;SDS011;43754;56.992;24.292;2023-02-07T02:39:07;15.75;;;3.28;;
57947;SDS011;43754;56.992;24.292;2023-02-07T02:41:48;9.70;;;2.30;;
57947;SDS011;43754;56.992;24.292;2023-02-07T02:44:28;10.35;;;2.80;;
57947;SDS011;43754;56.992;24.292;2023-02-07T02:47:06;17.75;;;2.67;;
57947;SDS011;43754;56.992;24.292;2023-02-07T02:49:41;11.95;;;2.33;;
57947;SDS011;43754;56.992;24.292;2023-02-07T02:52:15;13.93;;;2.30;;
57947;SDS011;43754;56.992;24.292;2023-02-07T02:54:46;19.05;;;2.90;;
57947;SDS011;43754;56.992;24.292;2023-02-07T02:57:40;15.77;;;2.55;;
57947;SDS011;43754;56.992;24.292;2023-02-07T03:00:29;16.48;;;2.58;;
57947;SDS011;43754;56.992;24.292;2023-02-07T03:03:17;15.52;;;2.50;;
57947;SDS011;43754;56.992;24.292;2023-02-07T03:06:11;13.88;;;2.95;;
57947;SDS011;43754;56.992;24.292;2023-02-07T03:08:53;19.45;;;3.50;;
57947;SDS011;43754;56.992;24.292;2023-02-07T03:11:37;17.45;;;3.08;;
57947;SDS011;43754;56.992;24.292;2023-02-07T03:14:14;15.45;;;3.17;;
57947;SDS011;43754;56.992;24.292;2023-02-07T03:16:55;14.95;;;3.75;;
57947;SDS011;43754;56.992;24.292;2023-02-07T03:19:35;16.25;;;3.70;;
57947;SDS011;43754;56.992;24.292;2023-02-07T03:22:12;22.08;;;4.82;;
57947;SDS011;43754;56.992;24.292;2023-02-07T03:24:50;13.77;;;3.67;;
57947;SDS011;43754;56.992;24.292;2023-02-07T03:27:27;17.15;;;3.40;;
57947;SDS011;43754;56.992;24.292;2023-02-07T03:30:01;12.30;;;3.42;;
57947;SDS011;43754;56.992;24.292;2023-02-07T03:32:37;17.25;;;3.60;;
57947;SDS011;43754;56.992;24.292;2023-02-07T03:35:13;16.00;;;4.20;;
57947;SDS011;43754;56.992;24.292;2023-02-07T03:37:52;17.55;;;4.15;;
57947;SDS011;43754;56.992;24.292;2023-02-07T03:40:27;17.63;;;3.72;;
57947;SDS011;43754;56.992;24.292;2023-02-07T03:43:01;14.90;;;3.63;;
57947;SDS011;43754;56.992;24.292;2023-02-07T03:45:37;27.00;;;5.32;;
57947;SDS011;43754;56.992;24.292;2023-02-07T03:48:09;15.50;;;3.13;;
57947;SDS011;43754;56.992;24.292;2023-02-07T03:50:41;15.68;;;3.97;;
57947;SDS011;43754;56.992;24.292;2023-02-07T03:53:15;13.23;;;4.47;;
57947;SDS011;43754;56.992;24.292;2023-02-07T03:55:47;27.17;;;4.97;;
57947;SDS011;43754;56.992;24.292;2023-02-07T03:58:19;14.75;;;4.18;;
57947;SDS011;43754;56.992;24.292;2023-02-07T04:00:51;29.95;;;8.27;;
57947;SDS011;43754;56.992;24.292;2023-02-07T04:03:23;28.05;;;6.57;;
57947;SDS011;43754;56.992;24.292;2023-02-07T04:05:55;15.25;;;5.57;;
57947;SDS011;43754;56.992;24.292;2023-02-07T04:08:28;18.38;;;5.78;;
57947;SDS011;43754;56.992;24.292;2023-02-07T04:11:01;21.00;;;6.50;;
57947;SDS011;43754;56.992;24.292;2023-02-07T04:13:34;18.20;;;6.93;;
57947;SDS011;43754;56.992;24.292;2023-02-07T04:16:06;20.65;;;5.97;;
57947;SDS011;43754;56.992;24.292;2023-02-07T04:18:39;25.27;;;6.80;;
57947;SDS011;43754;56.992;24.292;2023-02-07T04:21:11;19.17;;;6.22;;
57947;SDS011;43754;56.992;24.292;2023-02-07T04:23:44;18.95;;;5.40;;
57947;SDS011;43754;56.992;24.292;2023-02-07T04:26:16;16.52;;;5.38;;
57947;SDS011;43754;56.992;24.292;2023-02-07T04:28:48;23.30;;;5.90;;
57947;SDS011;43754;56.992;24.292;2023-02-07T04:31:20;20.48;;;6.25;;
57947;SDS011;43754;56.992;24.292;2023-02-07T04:33:52;26.10;;;6.65;;
57947;SDS011;43754;56.992;24.292;2023-02-07T04:36:25;20.10;;;6.93;;
57947;SDS011;43754;56.992;24.292;2023-02-07T04:39:01;16.13;;;5.78;;
57947;SDS011;43754;56.992;24.292;2023-02-07T04:41:34;21.33;;;7.18;;
57947;SDS011;43754;56.992;24.292;2023-02-07T04:44:06;22.48;;;6.43;;
57947;SDS011;43754;56.992;24.292;2023-02-07T04:46:38;28.05;;;8.93;;
57947;SDS011;43754;56.992;24.292;2023-02-07T04:49:10;28.05;;;8.07;;
57947;SDS011;43754;56.992;24.292;2023-02-07T04:51:42;26.65;;;8.57;;
57947;SDS011;43754;56.992;24.292;2023-02-07T04:54:15;22.05;;;7.72;;
57947;SDS011;43754;56.992;24.292;2023-02-07T04:56:47;17.48;;;5.88;;
57947;SDS011;43754;56.992;24.292;2023-02-07T04:59:19;21.25;;;8.25;;
57947;SDS011;43754;56.992;24.292;2023-02-07T05:01:51;30.13;;;9.02;;
57947;SDS011;43754;56.992;24.292;2023-02-07T05:04:23;26.75;;;8.10;;
57947;SDS011;43754;56.992;24.292;2023-02-07T05:06:55;20.48;;;7.65;;
57947;SDS011;43754;56.992;24.292;2023-02-07T05:09:31;25.63;;;8.20;;
57947;SDS011;43754;56.992;24.292;2023-02-07T05:12:04;24.13;;;7.85;;
57947;SDS011;43754;56.992;24.292;2023-02-07T05:14:36;27.15;;;8.25;;
57947;SDS011;43754;56.992;24.292;2023-02-07T05:17:08;31.42;;;9.98;;
57947;SDS011;43754;56.992;24.292;2023-02-07T05:19:40;31.88;;;10.40;;
57947;SDS011;43754;56.992;24.292;2023-02-07T05:22:13;32.75;;;11.30;;
57947;SDS011;43754;56.992;24.292;2023-02-07T05:24:46;36.30;;;11.07;;
57947;SDS011;43754;56.992;24.292;2023-02-07T05:27:18;42.90;;;11.30;;
57947;SDS011;43754;56.992;24.292;2023-02-07T05:29:50;26.70;;;9.23;;
57947;SDS011;43754;56.992;24.292;2023-02-07T05:32:22;35.85;;;11.63;;
57947;SDS011;43754;56.992;24.292;2023-02-07T05:35:12;29.27;;;9.20;;
57947;SDS011;43754;56.992;24.292;2023-02-07T05:37:44;17.63;;;5.95;;
57947;SDS011;43754;56.992;24.292;2023-02-07T05:40:18;26.73;;;6.45;;
57947;SDS011;43754;56.992;24.292;2023-02-07T05:42:50;15.52;;;5.30;;
57947;SDS011;43754;56.992;24.292;2023-02-07T05:45:22;13.07;;;4.85;;
57947;SDS011;43754;56.992;24.292;2023-02-07T05:47:54;15.70;;;3.50;;
57947;SDS011;43754;56.992;24.292;2023-02-07T05:50:26;14.38;;;3.90;;
57947;SDS011;43754;56.992;24.292;2023-02-07T05:53:08;18.10;;;3.90;;
57947;SDS011;43754;56.992;24.292;2023-02-07T05:55:42;11.07;;;3.75;;
57947;SDS011;43754;56.992;24.292;2023-02-07T05:58:14;11.90;;;3.72;;
57947;SDS011;43754;56.992;24.292;2023-02-07T06:00:48;11.98;;;3.35;;
57947;SDS011;43754;56.992;24.292;2023-02-07T06:03:20;10.55;;;3.92;;
57947;SDS011;43754;56.992;24.292;2023-02-07T06:05:52;17.65;;;4.40;;
57947;SDS011;43754;56.992;24.292;2023-02-07T06:08:24;12.65;;;4.32;;
57947;SDS011;43754;56.992;24.292;2023-02-07T06:10:57;18.67;;;4.85;;
57947;SDS011;43754;56.992;24.292;2023-02-07T06:13:29;14.05;;;4.47;;
57947;SDS011;43754;56.992;24.292;2023-02-07T06:16:01;21.58;;;4.95;;
57947;SDS011;43754;56.992;24.292;2023-02-07T06:18:33;21.65;;;7.07;;
57947;SDS011;43754;56.992;24.292;2023-02-07T06:21:06;18.25;;;7.38;;
57947;SDS011;43754;56.992;24.292;2023-02-07T06:23:38;18.90;;;8.75;;
57947;SDS011;43754;56.992;24.292;2023-02-07T06:26:11;20.25;;;7.90;;
57947;SDS011;43754;56.992;24.292;2023-02-07T06:28:44;19.45;;;5.82;;
57947;SDS011;43754;56.992;24.292;2023-02-07T06:31:15;21.65;;;8.30;;
57947;SDS011;43754;56.992;24.292;2023-02-07T06:33:48;28.27;;;9.50;;
57947;SDS011;43754;56.992;24.292;2023-02-07T06:36:20;24.15;;;8.65;;
57947;SDS011;43754;56.992;24.292;2023-02-07T06:38:52;23.75;;;7.75;;
57947;SDS011;43754;56.992;24.292;2023-02-07T06:41:27;24.35;;;8.48;;
57947;SDS011;43754;56.992;24.292;2023-02-07T06:43:59;17.73;;;8.77;;
57947;SDS011;43754;56.992;24.292;2023-02-07T06:46:31;19.13;;;9.98;;
57947;SDS011;43754;56.992;24.292;2023-02-07T06:49:03;29.33;;;13.15;;
57947;SDS011;43754;56.992;24.292;2023-02-07T06:51:35;29.45;;;13.73;;
57947;SDS011;43754;56.992;24.292;2023-02-07T06:54:07;30.17;;;15.43;;
57947;SDS011;43754;56.992;24.292;2023-02-07T06:56:41;26.27;;;13.95;;
57947;SDS011;43754;56.992;24.292;2023-02-07T06:59:13;27.35;;;15.70;;
57947;SDS011;43754;56.992;24.292;2023-02-07T07:01:45;26.00;;;15.07;;
57947;SDS011;43754;56.992;24.292;2023-02-07T07:04:20;27.80;;;15.48;;
57947;SDS011;43754;56.992;24.292;2023-02-07T07:06:52;31.55;;;16.52;;
57947;SDS011;43754;56.992;24.292;2023-02-07T07:09:24;43.63;;;21.48;;
57947;SDS011;43754;56.992;24.292;2023-02-07T07:11:57;37.70;;;17.15;;
57947;SDS011;43754;56.992;24.292;2023-02-07T07:14:29;45.22;;;20.55;;
57947;SDS011;43754;56.992;24.292;2023-02-07T07:17:01;30.58;;;15.10;;
57947;SDS011;43754;56.992;24.292;2023-02-07T07:19:33;26.00;;;14.00;;
57947;SDS011;43754;56.992;24.292;2023-02-07T07:22:05;35.88;;;20.58;;
57947;SDS011;43754;56.992;24.292;2023-02-07T07:24:37;22.48;;;10.85;;
57947;SDS011;43754;56.992;24.292;2023-02-07T07:27:10;24.10;;;9.55;;
57947;SDS011;43754;56.992;24.292;2023-02-07T07:29:42;15.73;;;8.00;;
57947;SDS011;43754;56.992;24.292;2023-02-07T07:32:14;23.83;;;10.48;;
57947;SDS011;43754;56.992;24.292;2023-02-07T07:35:04;19.75;;;8.75;;
57947;SDS011;43754;56.992;24.292;2023-02-07T07:37:37;17.13;;;6.53;;
57947;SDS011;43754;56.992;24.292;2023-02-07T07:40:09;21.55;;;6.85;;
57947;SDS011;43754;56.992;24.292;2023-02-07T07:42:43;13.38;;;6.72;;
57947;SDS011;43754;56.992;24.292;2023-02-07T07:45:41;13.53;;;7.10;;
57947;SDS011;43754;56.992;24.292;2023-02-07T07:48:13;11.75;;;6.35;;
57947;SDS011;43754;56.992;24.292;2023-02-07T07:50:45;14.23;;;5.53;;
57947;SDS011;43754;56.992;24.292;2023-02-07T07:53:18;21.63;;;8.38;;
57947;SDS011;43754;56.992;24.292;2023-02-07T07:55:51;20.58;;;9.70;;
57947;SDS011;43754;56.992;24.292;2023-02-07T07:58:26;22.35;;;9.73;;
57947;SDS011;43754;56.992;24.292;2023-02-07T08:00:59;23.40;;;8.88;;
57947;SDS011;43754;56.992;24.292;2023-02-07T08:03:31;18.90;;;9.25;;
57947;SDS011;43754;56.992;24.292;2023-02-07T08:06:03;24.20;;;9.80;;
57947;SDS011;43754;56.992;24.292;2023-02-07T08:08:36;16.13;;;8.27;;
57947;SDS011;43754;56.992;24.292;2023-02-07T08:11:08;20.52;;;8.73;;
57947;SDS011;43754;56.992;24.292;2023-02-07T08:13:42;19.80;;;8.55;;
57947;SDS011;43754;56.992;24.292;2023-02-07T08:16:14;15.45;;;8.63;;
57947;SDS011;43754;56.992;24.292;2023-02-07T08:18:47;18.40;;;8.25;;
57947;SDS011;43754;56.992;24.292;2023-02-07T08:21:19;19.42;;;8.75;;
57947;SDS011;43754;56.992;24.292;2023-02-07T08:23:51;16.25;;;8.25;;
57947;SDS011;43754;56.992;24.292;2023-02-07T08:26:25;31.80;;;10.93;;
57947;SDS011;43754;56.992;24.292;2023-02-07T08:28:58;24.08;;;11.05;;
57947;SDS011;43754;56.992;24.292;2023-02-07T08:31:30;18.63;;;8.75;;
57947;SDS011;43754;56.992;24.292;2023-02-07T08:34:02;24.25;;;10.48;;
57947;SDS011;43754;56.992;24.292;2023-02-07T08:36:34;29.00;;;12.60;;
57947;SDS011;43754;56.992;24.292;2023-02-07T08:39:07;33.88;;;15.38;;
57947;SDS011;43754;56.992;24.292;2023-02-07T08:41:39;27.13;;;13.43;;
57947;SDS011;43754;56.992;24.292;2023-02-07T08:44:12;26.35;;;10.50;;
57947;SDS011;43754;56.992;24.292;2023-02-07T08:46:44;22.08;;;12.27;;
57947;SDS011;43754;56.992;24.292;2023-02-07T08:49:16;20.98;;;10.00;;
57947;SDS011;43754;56.992;24.292;2023-02-07T08:51:48;20.10;;;10.52;;
57947;SDS011;43754;56.992;24.292;2023-02-07T08:54:20;18.65;;;7.63;;
57947;SDS011;43754;56.992;24.292;2023-02-07T08:56:52;20.23;;;7.75;;
57947;SDS011;43754;56.992;24.292;2023-02-07T08:59:26;20.00;;;8.65;;
57947;SDS011;43754;56.992;24.292;2023-02-07T09:01:58;21.98;;;8.95;;
57947;SDS011;43754;56.992;24.292;2023-02-07T09:04:30;21.27;;;9.00;;
57947;SDS011;43754;56.992;24.292;2023-02-07T09:07:02;20.35;;;8.70;;
57947;SDS011;43754;56.992;24.292;2023-02-07T09:09:34;17.38;;;8.20;;
57947;SDS011;43754;56.992;24.292;2023-02-07T09:12:06;19.98;;;9.15;;
57947;SDS011;43754;56.992;24.292;2023-02-07T09:14:41;22.17;;;8.90;;
57947;SDS011;43754;56.992;24.292;2023-02-07T09:17:13;22.45;;;11.05;;
57947;SDS011;43754;56.992;24.292;2023-02-07T09:19:45;20.52;;;10.60;;
57947;SDS011;43754;56.992;24.292;2023-02-07T09:22:17;15.32;;;7.97;;
57947;SDS011;43754;56.992;24.292;2023-02-07T09:24:50;16.98;;;8.18;;
57947;SDS011;43754;56.992;24.292;2023-02-07T09:27:22;12.68;;;7.55;;
57947;SDS011;43754;56.992;24.292;2023-02-07T09:29:56;15.60;;;7.78;;
57947;SDS011;43754;56.992;24.292;2023-02-07T09:32:28;11.27;;;6.85;;
57947;SDS011;43754;56.992;24.292;2023-02-07T09:35:00;11.55;;;7.05;;
57947;SDS011;43754;56.992;24.292;2023-02-07T09:37:32;15.85;;;6.88;;
57947;SDS011;43754;56.992;24.292;2023-02-07T09:40:19;12.90;;;6.60;;
57947;SDS011;43754;56.992;24.292;2023-02-07T09:42:54;14.35;;;6.45;;
57947;SDS011;43754;56.992;24.292;2023-02-07T09:45:30;12.93;;;6.82;;
57947;SDS011;43754;56.992;24.292;2023-02-07T09:48:10;12.98;;;6.05;;
57947;SDS011;43754;56.992;24.292;2023-02-07T09:50:50;14.50;;;6.20;;
57947;SDS011;43754;56.992;24.292;2023-02-07T09:53:26;12.40;;;5.55;;
57947;SDS011;43754;56.992;24.292;2023-02-07T09:56:04;14.55;;;5.60;;
57947;SDS011;43754;56.992;24.292;2023-02-07T09:58:39;9.88;;;5.85;;
57947;SDS011;43754;56.992;24.292;2023-02-07T10:01:17;14.45;;;5.85;;
57947;SDS011;43754;56.992;24.292;2023-02-07T10:03:54;8.02;;;5.28;;
57947;SDS011;43754;56.992;24.292;2023-02-07T10:06:36;9.23;;;5.10;;
57947;SDS011;43754;56.992;24.292;2023-02-07T10:09:13;12.45;;;5.78;;
57947;SDS011;43754;56.992;24.292;2023-02-07T10:11:48;11.68;;;5.35;;
57947;SDS011;43754;56.992;24.292;2023-02-07T10:14:26;10.82;;;4.93;;
57947;SDS011;43754;56.992;24.292;2023-02-07T10:17:21;11.50;;;5.25;;
57947;SDS011;43754;56.992;24.292;2023-02-07T10:20:18;12.23;;;4.65;;
57947;SDS011;43754;56.992;24.292;2023-02-07T10:23:03;17.00;;;5.72;;
57947;SDS011;43754;56.992;24.292;2023-02-07T10:25:45;14.65;;;6.68;;
57947;SDS011;43754;56.992;24.292;2023-02-07T10:31:23;16.15;;;5.45;;
57947;SDS011;43754;56.992;24.292;2023-02-07T10:33:58;12.77;;;5.35;;
57947;SDS011;43754;56.992;24.292;2023-02-07T10:36:34;14.93;;;5.57;;
57947;SDS011;43754;56.992;24.292;2023-02-07T10:39:10;7.47;;;4.03;;
57947;SDS011;43754;56.992;24.292;2023-02-07T10:41:47;21.40;;;11.27;;
57947;SDS011;43754;56.992;24.292;2023-02-07T10:44:20;18.25;;;9.93;;
57947;SDS011;43754;56.992;24.292;2023-02-07T10:46:53;15.57;;;7.30;;
57947;SDS011;43754;56.992;24.292;2023-02-07T10:49:31;10.15;;;4.80;;
57947;SDS011;43754;56.992;24.292;2023-02-07T10:52:05;18.02;;;6.50;;
57947;SDS011;43754;56.992;24.292;2023-02-07T10:54:51;10.70;;;6.30;;
57947;SDS011;43754;56.992;24.292;2023-02-07T10:57:25;13.57;;;6.32;;
57947;SDS011;43754;56.992;24.292;2023-02-07T11:00:00;20.65;;;9.65;;
57947;SDS011;43754;56.992;24.292;2023-02-07T11:02:41;35.20;;;16.92;;
57947;SDS011;43754;56.992;24.292;2023-02-07T11:05:29;20.75;;;12.95;;
57947;SDS011;43754;56.992;24.292;2023-02-07T11:08:04;19.65;;;11.32;;
57947;SDS011;43754;56.992;24.292;2023-02-07T11:10:48;15.77;;;8.10;;
57947;SDS011;43754;56.992;24.292;2023-02-07T11:13:21;25.25;;;9.15;;
57947;SDS011;43754;56.992;24.292;2023-02-07T11:15:58;43.33;;;20.63;;
57947;SDS011;43754;56.992;24.292;2023-02-07T11:18:36;39.67;;;20.42;;
57947;SDS011;43754;56.992;24.292;2023-02-07T11:21:22;32.13;;;18.65;;
57947;SDS011;43754;56.992;24.292;2023-02-07T11:26:30;13.75;;;5.88;;
57947;SDS011;43754;56.992;24.292;2023-02-07T11:29:05;24.15;;;13.73;;
57947;SDS011;43754;56.992;24.292;2023-02-07T11:31:44;15.77;;;4.43;;
57947;SDS011;43754;56.992;24.292;2023-02-07T11:34:26;15.43;;;6.20;;
57947;SDS011;43754;56.992;24.292;2023-02-07T11:37:09;13.18;;;5.63;;
57947;SDS011;43754;56.992;24.292;2023-02-07T11:39:49;21.63;;;9.55;;
57947;SDS011;43754;56.992;24.292;2023-02-07T11:42:24;25.65;;;9.05;;
57947;SDS011;43754;56.992;24.292;2023-02-07T11:45:01;19.65;;;8.10;;
57947;SDS011;43754;56.992;24.292;2023-02-07T11:47:35;21.52;;;9.43;;
57947;SDS011;43754;56.992;24.292;2023-02-07T11:50:10;18.23;;;8.85;;
57947;SDS011;43754;56.992;24.292;2023-02-07T11:52:50;16.77;;;6.60;;
57947;SDS011;43754;56.992;24.292;2023-02-07T11:55:30;19.90;;;7.38;;
57947;SDS011;43754;56.992;24.292;2023-02-07T11:58:06;19.45;;;7.63;;
57947;SDS011;43754;56.992;24.292;2023-02-07T12:00:40;19.60;;;8.75;;
57947;SDS011;43754;56.992;24.292;2023-02-07T12:03:17;16.35;;;8.00;;
57947;SDS011;43754;56.992;24.292;2023-02-07T12:05:54;14.27;;;7.38;;
57947;SDS011;43754;56.992;24.292;2023-02-07T12:08:31;11.65;;;6.28;;
57947;SDS011;43754;56.992;24.292;2023-02-07T12:11:08;14.15;;;6.65;;
57947;SDS011;43754;56.992;24.292;2023-02-07T12:13:47;16.25;;;7.13;;
57947;SDS011;43754;56.992;24.292;2023-02-07T12:16:23;12.18;;;6.68;;
57947;SDS011;43754;56.992;24.292;2023-02-07T12:18:58;22.52;;;9.18;;
57947;SDS011;43754;56.992;24.292;2023-02-07T12:21:36;15.23;;;7.60;;
57947;SDS011;43754;56.992;24.292;2023-02-07T12:24:17;13.77;;;7.53;;
57947;SDS011;43754;56.992;24.292;2023-02-07T12:26:54;12.18;;;5.82;;
57947;SDS011;43754;56.992;24.292;2023-02-07T12:29:34;17.60;;;6.13;;
57947;SDS011;43754;56.992;24.292;2023-02-07T12:32:20;13.15;;;5.53;;
57947;SDS011;43754;56.992;24.292;2023-02-07T12:35:02;14.52;;;6.88;;
57947;SDS011;43754;56.992;24.292;2023-02-07T12:37:42;16.35;;;7.25;;
57947;SDS011;43754;56.992;24.292;2023-02-07T12:40:23;19.85;;;7.07;;
57947;SDS011;43754;56.992;24.292;2023-02-07T12:43:02;25.80;;;13.93;;
57947;SDS011;43754;56.992;24.292;2023-02-07T12:45:44;22.05;;;10.73;;
57947;SDS011;43754;56.992;24.292;2023-02-07T12:48:30;19.13;;;9.80;;
57947;SDS011;43754;56.992;24.292;2023-02-07T12:51:16;19.73;;;9.63;;
57947;SDS011;43754;56.992;24.292;2023-02-07T12:54:05;19.70;;;8.30;;
57947;SDS011;43754;56.992;24.292;2023-02-07T12:56:54;20.48;;;7.93;;
57947;SDS011;43754;56.992;24.292;2023-02-07T12:59:36;14.32;;;5.88;;
57947;SDS011;43754;56.992;24.292;2023-02-07T13:02:20;16.65;;;5.60;;
57947;SDS011;43754;56.992;24.292;2023-02-07T13:05:16;15.05;;;5.78;;
57947;SDS011;43754;56.992;24.292;2023-02-07T13:08:14;17.30;;;5.63;;
57947;SDS011;43754;56.992;24.292;2023-02-07T13:10:57;17.17;;;5.60;;
57947;SDS011;43754;56.992;24.292;2023-02-07T13:13:37;11.52;;;5.18;;
57947;SDS011;43754;56.992;24.292;2023-02-07T13:16:20;14.80;;;5.47;;
57947;SDS011;43754;56.992;24.292;2023-02-07T13:19:01;19.30;;;7.38;;
57947;SDS011;43754;56.992;24.292;2023-02-07T13:21:42;17.05;;;6.80;;
57947;SDS011;43754;56.992;24.292;2023-02-07T13:24:21;40.50;;;18.98;;
57947;SDS011;43754;56.992;24.292;2023-02-07T13:26:57;19.08;;;5.82;;
57947;SDS011;43754;56.992;24.292;2023-02-07T13:29:37;11.40;;;5.20;;
57947;SDS011;43754;56.992;24.292;2023-02-07T13:32:12;23.08;;;11.25;;
57947;SDS011;43754;56.992;24.292;2023-02-07T13:34:50;62.97;;;29.40;;
57947;SDS011;43754;56.992;24.292;2023-02-07T13:37:31;14.38;;;5.63;;
57947;SDS011;43754;56.992;24.292;2023-02-07T13:40:16;33.40;;;11.15;;
57947;SDS011;43754;56.992;24.292;2023-02-07T13:42:59;22.80;;;9.35;;
57947;SDS011;43754;56.992;24.292;2023-02-07T13:45:40;25.35;;;9.43;;
57947;SDS011;43754;56.992;24.292;2023-02-07T13:48:22;17.17;;;5.20;;
57947;SDS011;43754;56.992;24.292;2023-02-07T13:51:09;20.63;;;6.05;;
57947;SDS011;43754;56.992;24.292;2023-02-07T13:53:50;23.35;;;6.95;;
57947;SDS011;43754;56.992;24.292;2023-02-07T13:56:31;21.63;;;5.55;;
57947;SDS011;43754;56.992;24.292;2023-02-07T13:59:33;17.73;;;5.00;;
57947;SDS011;43754;56.992;24.292;2023-02-07T14:02:15;17.75;;;4.93;;
57947;SDS011;43754;56.992;24.292;2023-02-07T14:04:50;17.50;;;6.15;;
57947;SDS011;43754;56.992;24.292;2023-02-07T14:07:25;14.80;;;5.55;;
57947;SDS011;43754;56.992;24.292;2023-02-07T14:10:02;18.10;;;6.13;;
57947;SDS011;43754;56.992;24.292;2023-02-07T14:12:35;17.75;;;11.05;;
57947;SDS011;43754;56.992;24.292;2023-02-07T14:21:37;10.13;;;4.38;;
57947;SDS011;43754;56.992;24.292;2023-02-07T14:24:16;14.23;;;5.28;;
57947;SDS011;43754;56.992;24.292;2023-02-07T14:26:55;12.63;;;6.13;;
57947;SDS011;43754;56.992;24.292;2023-02-07T14:29:38;17.92;;;4.88;;
57947;SDS011;43754;56.992;24.292;2023-02-07T14:32:25;13.13;;;5.22;;
57947;SDS011;43754;56.992;24.292;2023-02-07T14:35:29;17.02;;;5.93;;
57947;SDS011;43754;56.992;24.292;2023-02-07T14:41:01;19.65;;;7.65;;
57947;SDS011;43754;56.992;24.292;2023-02-07T14:43:43;32.55;;;10.20;;
57947;SDS011;43754;56.992;24.292;2023-02-07T14:46:38;17.95;;;7.88;;
57947;SDS011;43754;56.992;24.292;2023-02-07T14:49:13;18.42;;;7.95;;
57947;SDS011;43754;56.992;24.292;2023-02-07T14:51:51;49.55;;;19.67;;
57947;SDS011;43754;56.992;24.292;2023-02-07T14:54:26;22.05;;;8.25;;
57947;SDS011;43754;56.992;24.292;2023-02-07T14:57:05;16.52;;;6.93;;
57947;SDS011;43754;56.992;24.292;2023-02-07T14:59:46;17.85;;;7.10;;
57947;SDS011;43754;56.992;24.292;2023-02-07T15:02:33;15.48;;;6.07;;
57947;SDS011;43754;56.992;24.292;2023-02-07T15:05:17;21.95;;;9.50;;
57947;SDS011;43754;56.992;24.292;2023-02-07T15:08:05;19.85;;;8.40;;
57947;SDS011;43754;56.992;24.292;2023-02-07T15:10:39;14.15;;;6.22;;
57947;SDS011;43754;56.992;24.292;2023-02-07T15:13:19;23.10;;;7.22;;
57947;SDS011;43754;56.992;24.292;2023-02-07T15:15:55;20.10;;;8.05;;
57947;SDS011;43754;56.992;24.292;2023-02-07T15:18:31;19.60;;;8.55;;
57947;SDS011;43754;56.992;24.292;2023-02-07T15:21:05;22.20;;;9.05;;
57947;SDS011;43754;56.992;24.292;2023-02-07T15:23:44;22.95;;;8.55;;
57947;SDS011;43754;56.992;24.292;2023-02-07T15:26:20;25.13;;;10.13;;
57947;SDS011;43754;56.992;24.292;2023-02-07T15:28:56;19.25;;;8.10;;
57947;SDS011;43754;56.992;24.292;2023-02-07T15:31:30;18.95;;;6.43;;
57947;SDS011;43754;56.992;24.292;2023-02-07T15:34:11;20.02;;;8.88;;
57947;SDS011;43754;56.992;24.292;2023-02-07T15:36:45;21.77;;;7.00;;
57947;SDS011;43754;56.992;24.292;2023-02-07T15:39:20;21.52;;;7.35;;